KRHV/RHV METAR and TAF weather

Enter ICAO airport designator
Station Type Date Time Source
KRHV METAR 2019/06/17 04:50 UTC NOAA

KRHV 170450Z VRB04KT 10SM FEW080 16/12 A2986 RMK LAST


Station Type Date Time Source
KRHV Decoded METAR 2019/06/17 04:50 UTC NOAA

San Jose / Reid / Hillv, CA, United States (KRHV) 37-20N 121-49W
Jun 17, 2019 - 12:50 AM EDT / 2019.06.17 0450 UTC
Wind: Variable at 5 MPH (4 KT):0
Visibility: 10 mile(s):0
Sky conditions: mostly clear
Temperature: 60 F (16 C)
Dew Point: 53 F (12 C)
Relative Humidity: 77%
Pressure (altimeter): 29.86 in. Hg (1011 hPa)
ob: KRHV 170450Z VRB04KT 10SM FEW080 16/12 A2986 RMK LAST
cycle: 5

Station Type Date Time Source
KRHV TAF UTC NOAA

Error!

Example: see airport list